createdAt,value
2017-12-30T00:01:50.098Z,69.60
2017-12-30T00:04:18.473Z,69.50
2017-12-30T00:06:46.119Z,69.50
2017-12-30T00:09:13.686Z,69.50
2017-12-30T00:11:41.328Z,69.10
2017-12-30T00:14:08.948Z,69.40
2017-12-30T00:16:36.561Z,68.80
2017-12-30T00:19:04.973Z,69.50
2017-12-30T00:21:32.583Z,68.70
2017-12-30T00:24:00.223Z,68.30
2017-12-30T00:26:27.841Z,67.80
2017-12-30T00:28:55.483Z,67.80
2017-12-30T00:31:23.111Z,68.00
2017-12-30T00:33:50.744Z,67.80
2017-12-30T00:36:18.352Z,68.10
2017-12-30T00:38:45.949Z,68.10
2017-12-30T00:41:13.563Z,68.30
2017-12-30T00:43:41.158Z,68.40
2017-12-30T00:46:09.558Z,68.10
2017-12-30T00:48:37.194Z,68.10
2017-12-30T00:51:05.534Z,67.70
2017-12-30T00:53:33.131Z,67.60
2017-12-30T00:56:01.474Z,67.50
2017-12-30T00:58:29.063Z,67.40
2017-12-30T01:00:57.448Z,67.70
2017-12-30T01:03:25.087Z,67.70
2017-12-30T01:05:53.436Z,67.40
2017-12-30T01:08:21.030Z,67.30
2017-12-30T01:10:49.365Z,67.00
2017-12-30T01:13:16.966Z,67.00
2017-12-30T01:15:45.302Z,67.50
2017-12-30T01:18:12.900Z,67.40
2017-12-30T01:20:41.277Z,66.80
2017-12-30T01:23:08.875Z,66.80
2017-12-30T01:25:36.473Z,67.20
2017-12-30T01:28:04.041Z,66.80
2017-12-30T01:30:31.671Z,66.50
2017-12-30T01:32:59.233Z,67.10
2017-12-30T01:35:26.825Z,66.40
2017-12-30T01:37:54.398Z,66.10
2017-12-30T01:40:21.996Z,66.20
2017-12-30T01:42:49.561Z,65.90
2017-12-30T01:45:17.153Z,66.00
2017-12-30T01:47:44.716Z,66.20
2017-12-30T01:50:12.307Z,66.30
2017-12-30T01:52:39.884Z,66.30
2017-12-30T01:55:08.246Z,66.10
2017-12-30T01:57:35.832Z,66.80
2017-12-30T02:00:03.427Z,66.40
2017-12-30T02:02:31.006Z,67.20
2017-12-30T02:04:59.358Z,66.70
2017-12-30T02:07:28.558Z,66.70
2017-12-30T02:09:56.149Z,66.90
2017-12-30T02:12:24.484Z,67.00
2017-12-30T02:14:52.083Z,67.00
2017-12-30T02:17:19.658Z,67.20
2017-12-30T02:19:47.252Z,66.90
2017-12-30T02:22:14.832Z,67.30
2017-12-30T02:24:42.425Z,67.50
2017-12-30T02:27:10.761Z,67.90
2017-12-30T02:29:38.393Z,67.90
2017-12-30T02:32:05.989Z,67.60
2017-12-30T02:34:33.594Z,67.70
2017-12-30T02:37:01.162Z,68.60
2017-12-30T02:39:28.734Z,67.30
2017-12-30T02:41:56.331Z,67.60
2017-12-30T02:44:23.904Z,67.90
2017-12-30T02:46:52.270Z,67.70
2017-12-30T02:49:19.846Z,67.60
2017-12-30T02:51:48.204Z,67.60
2017-12-30T02:54:15.775Z,67.60
2017-12-30T02:56:44.140Z,67.80
2017-12-30T02:59:11.719Z,67.80
2017-12-30T03:01:40.078Z,68.90
2017-12-30T03:04:07.663Z,68.70
2017-12-30T03:06:35.257Z,69.50
2017-12-30T03:09:02.864Z,68.80
2017-12-30T03:11:31.247Z,68.80
2017-12-30T03:13:58.813Z,68.80
2017-12-30T03:16:27.169Z,68.20
2017-12-30T03:18:54.746Z,68.20
2017-12-30T03:21:23.105Z,68.50
2017-12-30T03:23:50.679Z,68.40
2017-12-30T03:26:19.049Z,68.80
2017-12-30T03:28:46.631Z,68.70
2017-12-30T03:33:48.138Z,68.40
2017-12-30T03:36:15.733Z,69.50
2017-12-30T03:38:43.311Z,69.30
2017-12-30T03:41:10.916Z,69.40
2017-12-30T03:43:38.483Z,69.30
2017-12-30T03:46:06.086Z,68.90
2017-12-30T03:48:33.653Z,68.70
2017-12-30T03:51:01.253Z,69.50
2017-12-30T03:53:28.820Z,69.10
2017-12-30T03:55:56.413Z,68.90
2017-12-30T03:58:24.753Z,68.80
2017-12-30T04:00:52.331Z,68.70
2017-12-30T04:03:19.930Z,69.50
2017-12-30T04:05:47.522Z,69.90
2017-12-30T04:08:15.129Z,69.80
2017-12-30T04:10:43.213Z,69.20
2017-12-30T04:13:10.814Z,69.40
2017-12-30T04:15:38.433Z,69.70
2017-12-30T04:18:06.003Z,70.10
2017-12-30T04:20:33.583Z,69.40
2017-12-30T04:23:01.177Z,69.20
2017-12-30T04:25:28.741Z,69.80
2017-12-30T04:27:56.342Z,69.30
2017-12-30T04:30:23.922Z,69.40
2017-12-30T04:32:51.524Z,70.50
2017-12-30T04:35:19.863Z,70.00
2017-12-30T04:37:47.459Z,69.80
2017-12-30T04:40:15.028Z,69.90
2017-12-30T04:42:42.634Z,70.40
2017-12-30T04:45:10.794Z,70.20
2017-12-30T04:47:38.381Z,70.90
2017-12-30T04:50:05.940Z,70.60
2017-12-30T04:52:33.542Z,70.50
2017-12-30T04:55:01.881Z,70.00
2017-12-30T04:57:29.481Z,70.00
2017-12-30T04:59:57.063Z,69.90
2017-12-30T05:02:24.665Z,70.40
2017-12-30T05:04:53.029Z,70.60
2017-12-30T05:07:20.617Z,70.50
2017-12-30T05:09:48.185Z,69.60
2017-12-30T05:12:15.749Z,69.00
2017-12-30T05:14:44.102Z,68.80
2017-12-30T05:17:11.673Z,68.70
2017-12-30T05:19:39.265Z,69.20
2017-12-30T05:22:06.829Z,69.80
2017-12-30T05:24:34.427Z,69.60
2017-12-30T05:27:02.006Z,69.50
2017-12-30T05:29:29.628Z,69.60
2017-12-30T05:31:57.185Z,69.50
2017-12-30T05:34:24.793Z,69.80
2017-12-30T05:36:53.138Z,69.90
2017-12-30T05:39:20.729Z,69.90
2017-12-30T05:41:48.306Z,70.70
2017-12-30T05:44:15.905Z,70.20
2017-12-30T05:46:43.519Z,70.30
2017-12-30T05:49:11.108Z,70.20
2017-12-30T05:51:38.681Z,70.20
2017-12-30T05:54:06.283Z,70.40
2017-12-30T05:56:34.633Z,70.20
2017-12-30T05:59:02.225Z,70.10
2017-12-30T06:01:29.789Z,70.20
2017-12-30T06:03:57.385Z,70.40
2017-12-30T06:06:24.953Z,70.20
2017-12-30T06:08:52.540Z,70.70
2017-12-30T06:11:20.897Z,70.40
2017-12-30T06:13:48.491Z,70.30
2017-12-30T06:16:16.833Z,70.40
2017-12-30T06:18:44.425Z,70.40
2017-12-30T06:21:12.002Z,70.50
2017-12-30T06:23:40.378Z,70.60
2017-12-30T06:26:08.717Z,70.40
2017-12-30T06:28:36.285Z,70.40
2017-12-30T06:31:04.117Z,70.60
2017-12-30T06:33:31.700Z,71.00
2017-12-30T06:35:59.301Z,70.90
2017-12-30T06:38:26.878Z,71.30
2017-12-30T06:40:54.480Z,71.30
2017-12-30T06:43:22.050Z,70.90
2017-12-30T06:45:49.668Z,70.70
2017-12-30T06:48:17.244Z,70.20
2017-12-30T06:50:44.838Z,70.20
2017-12-30T06:53:13.185Z,70.80
2017-12-30T06:55:40.798Z,71.10
2017-12-30T06:58:08.369Z,71.70
2017-12-30T07:00:35.967Z,71.30
2017-12-30T07:03:03.612Z,71.20
2017-12-30T07:05:31.206Z,71.30
2017-12-30T07:07:58.785Z,71.10
2017-12-30T07:10:26.382Z,71.70
2017-12-30T07:12:53.952Z,71.40
2017-12-30T07:15:21.571Z,71.60
2017-12-30T07:17:49.137Z,71.40
2017-12-30T07:20:16.730Z,72.70
2017-12-30T07:22:44.313Z,71.90
2017-12-30T07:25:11.929Z,72.10
2017-12-30T07:27:39.505Z,72.20
2017-12-30T07:30:07.090Z,71.40
2017-12-30T07:32:34.661Z,71.90
2017-12-30T07:35:02.274Z,71.50
2017-12-30T07:37:29.852Z,72.10
2017-12-30T07:39:57.409Z,71.10
2017-12-30T07:42:25.002Z,71.50
2017-12-30T07:44:52.951Z,72.60
2017-12-30T07:47:20.538Z,72.60
2017-12-30T07:49:49.222Z,71.90
2017-12-30T07:52:16.854Z,71.90
2017-12-30T07:54:44.433Z,72.00
2017-12-30T07:57:12.795Z,72.30
2017-12-30T07:59:40.368Z,72.20
2017-12-30T08:02:08.733Z,72.00
2017-12-30T08:04:36.305Z,72.00
2017-12-30T08:07:03.912Z,72.80
2017-12-30T08:09:31.484Z,73.10
2017-12-30T08:11:59.086Z,72.70
2017-12-30T08:14:26.674Z,72.40
2017-12-30T08:16:54.273Z,72.30
2017-12-30T08:19:21.857Z,73.10
2017-12-30T08:21:49.448Z,73.10
2017-12-30T08:24:17.019Z,73.30
2017-12-30T08:26:44.614Z,74.20
2017-12-30T08:29:12.190Z,74.10
2017-12-30T08:31:39.793Z,74.20
2017-12-30T08:34:07.360Z,74.70
2017-12-30T08:36:34.956Z,74.00
2017-12-30T08:39:02.517Z,73.40
2017-12-30T08:41:30.107Z,73.60
2017-12-30T08:43:57.673Z,73.40
2017-12-30T08:46:25.333Z,73.60
2017-12-30T08:48:52.902Z,73.70
2017-12-30T08:51:20.481Z,73.50
2017-12-30T08:53:48.053Z,74.30
2017-12-30T08:56:15.618Z,73.80
2017-12-30T08:58:43.513Z,74.30
2017-12-30T09:01:11.131Z,75.00
2017-12-30T09:03:38.722Z,75.20
2017-12-30T09:06:06.369Z,74.70
2017-12-30T09:08:33.958Z,74.50
2017-12-30T09:11:01.517Z,74.90
2017-12-30T09:13:29.865Z,74.80
2017-12-30T09:15:57.429Z,74.60
2017-12-30T09:18:25.026Z,75.10
2017-12-30T09:20:52.601Z,75.00
2017-12-30T09:23:20.199Z,75.10
2017-12-30T09:25:47.811Z,75.80
2017-12-30T09:28:15.509Z,75.00
2017-12-30T09:30:43.154Z,74.90
2017-12-30T09:33:10.743Z,74.40
2017-12-30T09:35:38.318Z,74.20
2017-12-30T09:38:05.918Z,74.90
2017-12-30T09:40:33.491Z,75.10
2017-12-30T09:43:01.094Z,75.50
2017-12-30T09:45:28.662Z,75.10
2017-12-30T09:47:57.037Z,74.50
2017-12-30T09:50:25.378Z,75.00
2017-12-30T09:52:52.944Z,74.90
2017-12-30T09:55:20.537Z,74.90
2017-12-30T09:57:48.097Z,75.50
2017-12-30T10:00:16.458Z,75.70
2017-12-30T10:02:44.030Z,75.70
2017-12-30T10:05:12.401Z,76.10
2017-12-30T10:07:39.974Z,75.40
2017-12-30T10:10:07.570Z,75.80
2017-12-30T10:12:35.153Z,76.20
2017-12-30T10:15:02.998Z,76.80
2017-12-30T10:17:30.567Z,76.80
2017-12-30T10:19:58.172Z,77.00
2017-12-30T10:22:26.502Z,76.90
2017-12-30T10:24:54.086Z,76.90
2017-12-30T10:27:21.664Z,77.60
2017-12-30T10:29:49.257Z,76.60
2017-12-30T10:32:16.826Z,77.30
2017-12-30T10:34:44.419Z,77.40
2017-12-30T10:37:11.990Z,77.60
2017-12-30T10:39:39.685Z,77.30
2017-12-30T10:42:07.254Z,77.60
2017-12-30T10:44:34.852Z,77.30
2017-12-30T10:47:02.440Z,77.60
2017-12-30T10:49:30.773Z,78.20
2017-12-30T10:51:58.366Z,77.60
2017-12-30T10:54:25.929Z,77.70
2017-12-30T10:56:53.526Z,77.50
2017-12-30T10:59:21.096Z,77.50
2017-12-30T11:01:48.681Z,77.30
2017-12-30T11:04:16.255Z,77.70
2017-12-30T11:06:43.855Z,77.60
2017-12-30T11:09:11.435Z,77.50
2017-12-30T11:11:39.032Z,77.70
2017-12-30T11:14:06.609Z,76.50
2017-12-30T11:16:34.961Z,77.10
2017-12-30T11:19:02.534Z,77.10
2017-12-30T11:21:30.126Z,77.10
2017-12-30T11:23:57.705Z,77.00
2017-12-30T11:26:25.295Z,76.90
2017-12-30T11:28:52.884Z,76.90
2017-12-30T11:31:21.239Z,75.90
2017-12-30T11:33:48.819Z,75.90
2017-12-30T11:36:17.179Z,75.50
2017-12-30T11:38:45.017Z,75.50
2017-12-30T11:41:12.629Z,75.60
2017-12-30T11:43:41.053Z,75.60
2017-12-30T11:46:09.323Z,75.50
2017-12-30T11:48:37.402Z,75.30
2017-12-30T11:51:06.339Z,74.50
2017-12-30T11:53:34.606Z,74.50
2017-12-30T11:56:03.675Z,75.00
2017-12-30T11:58:33.097Z,75.50
2017-12-30T12:01:02.794Z,76.80
2017-12-30T12:03:32.935Z,76.80
2017-12-30T12:06:01.633Z,77.00
2017-12-30T12:08:29.245Z,77.20
2017-12-30T12:10:57.445Z,77.00
2017-12-30T12:13:25.790Z,77.20
2017-12-30T12:15:54.964Z,76.80
2017-12-30T12:18:24.038Z,76.80
2017-12-30T12:20:52.199Z,76.60
2017-12-30T12:23:20.667Z,76.40
2017-12-30T12:25:50.115Z,76.50
2017-12-30T12:28:19.243Z,76.00
2017-12-30T12:30:48.420Z,75.00
2017-12-30T12:33:18.643Z,74.80
2017-12-30T12:35:47.636Z,74.60
2017-12-30T12:38:17.387Z,74.80
2017-12-30T12:40:45.658Z,74.70
2017-12-30T12:43:13.664Z,74.50
2017-12-30T12:45:41.648Z,73.70
2017-12-30T12:48:10.547Z,73.40
2017-12-30T12:50:38.545Z,73.80
2017-12-30T12:53:06.941Z,74.70
2017-12-30T12:55:35.237Z,73.40
2017-12-30T12:58:03.390Z,73.50
2017-12-30T13:00:32.126Z,73.00
2017-12-30T13:03:00.187Z,72.80
2017-12-30T13:05:29.968Z,73.60
2017-12-30T13:07:58.142Z,73.30
2017-12-30T13:10:26.518Z,72.90
2017-12-30T13:12:54.578Z,72.80
2017-12-30T13:15:22.884Z,72.90
2017-12-30T13:17:50.993Z,72.40
2017-12-30T13:20:21.265Z,72.40
2017-12-30T13:22:49.687Z,72.20
2017-12-30T13:25:19.382Z,72.40
2017-12-30T13:27:48.843Z,73.00
2017-12-30T13:30:17.465Z,73.80
2017-12-30T13:32:48.135Z,74.30
2017-12-30T13:35:16.794Z,74.30
2017-12-30T13:37:45.561Z,74.80
2017-12-30T13:40:14.151Z,74.80
2017-12-30T13:42:42.237Z,75.20
2017-12-30T13:45:11.378Z,75.20
2017-12-30T13:47:39.542Z,75.10
2017-12-30T13:50:07.651Z,75.40
2017-12-30T13:52:35.726Z,75.20
2017-12-30T13:55:04.116Z,75.20
2017-12-30T13:57:32.720Z,75.30
2017-12-30T14:00:01.116Z,75.00
2017-12-30T14:02:29.339Z,75.30
2017-12-30T14:04:57.488Z,75.20
2017-12-30T14:07:25.647Z,75.40
2017-12-30T14:09:53.894Z,75.60
2017-12-30T14:12:22.814Z,75.80
2017-12-30T14:14:50.491Z,75.70
2017-12-30T14:17:18.072Z,76.00
2017-12-30T14:19:45.670Z,76.20
2017-12-30T14:22:13.237Z,76.10
2017-12-30T14:24:40.838Z,76.20
2017-12-30T14:27:08.417Z,76.20
2017-12-30T14:29:35.998Z,75.80
2017-12-30T14:32:03.643Z,74.90
2017-12-30T14:34:31.215Z,74.90
2017-12-30T14:36:58.808Z,74.10
2017-12-30T14:39:27.178Z,73.70
2017-12-30T14:41:54.815Z,73.70
2017-12-30T14:44:22.436Z,73.70
2017-12-30T14:46:50.039Z,73.60
2017-12-30T14:49:17.701Z,73.40
2017-12-30T14:51:45.358Z,73.70
2017-12-30T14:54:12.902Z,73.80
2017-12-30T14:56:40.502Z,73.70
2017-12-30T14:59:08.848Z,74.00
2017-12-30T15:01:36.449Z,73.90
2017-12-30T15:04:04.782Z,74.50
2017-12-30T15:06:32.396Z,74.30
2017-12-30T15:08:59.966Z,74.20
2017-12-30T15:11:27.573Z,74.10
2017-12-30T15:13:55.191Z,74.50
2017-12-30T15:16:22.844Z,74.60
2017-12-30T15:18:50.425Z,74.60
2017-12-30T15:21:18.001Z,75.20
2017-12-30T15:23:45.606Z,75.20
2017-12-30T15:26:13.946Z,75.70
2017-12-30T15:28:41.549Z,75.70
2017-12-30T15:31:09.117Z,75.70
2017-12-30T15:33:36.727Z,75.30
2017-12-30T15:36:04.314Z,75.30
2017-12-30T15:38:31.913Z,74.90
2017-12-30T15:40:59.541Z,74.90
2017-12-30T15:43:27.171Z,75.00
2017-12-30T15:45:54.754Z,74.90
2017-12-30T15:48:22.355Z,75.20
2017-12-30T15:50:49.933Z,75.00
2017-12-30T15:53:17.571Z,74.60
2017-12-30T15:55:45.910Z,74.30
2017-12-30T15:58:14.282Z,73.90
2017-12-30T16:00:42.809Z,74.10
2017-12-30T16:03:10.402Z,74.10
2017-12-30T16:05:37.974Z,73.90
2017-12-30T16:08:05.565Z,73.90
2017-12-30T16:10:33.143Z,73.10
2017-12-30T16:13:00.737Z,73.50
2017-12-30T16:15:28.300Z,73.60
2017-12-30T16:17:55.917Z,73.70
2017-12-30T16:20:23.496Z,73.50
2017-12-30T16:22:51.111Z,72.90
2017-12-30T16:25:19.454Z,73.50
2017-12-30T16:27:47.053Z,73.50
2017-12-30T16:30:14.629Z,73.00
2017-12-30T16:32:42.230Z,72.50
2017-12-30T16:35:10.462Z,72.60
2017-12-30T16:37:38.821Z,72.60
2017-12-30T16:40:06.422Z,72.50
2017-12-30T16:42:34.015Z,72.80
2017-12-30T16:45:01.610Z,72.40
2017-12-30T16:47:29.190Z,73.00
2017-12-30T16:49:56.785Z,72.10
2017-12-30T16:52:24.376Z,71.90
2017-12-30T16:54:51.978Z,72.00
2017-12-30T16:57:19.549Z,72.30
2017-12-30T16:59:47.152Z,72.80
2017-12-30T17:02:14.769Z,72.30
2017-12-30T17:04:42.366Z,72.50
2017-12-30T17:07:09.989Z,72.60
2017-12-30T17:09:37.594Z,72.90
2017-12-30T17:12:05.176Z,73.40
2017-12-30T17:14:32.819Z,73.90
2017-12-30T17:17:00.398Z,74.10
2017-12-30T17:19:27.988Z,74.20
2017-12-30T17:21:55.561Z,74.90
2017-12-30T17:24:23.170Z,74.80
2017-12-30T17:26:50.780Z,75.60
2017-12-30T17:29:18.431Z,75.20
2017-12-30T17:31:46.061Z,75.70
2017-12-30T17:34:13.668Z,76.30
2017-12-30T17:36:41.356Z,76.50
2017-12-30T17:39:09.740Z,76.20
2017-12-30T17:41:37.317Z,76.20
2017-12-30T17:44:04.947Z,77.30
2017-12-30T17:46:32.522Z,77.60
2017-12-30T17:49:00.147Z,78.00
2017-12-30T17:51:27.801Z,77.50
2017-12-30T17:53:55.384Z,77.90
2017-12-30T17:56:23.797Z,78.00
2017-12-30T17:58:51.421Z,78.00
2017-12-30T18:01:19.795Z,78.50
2017-12-30T18:03:48.132Z,78.60
2017-12-30T18:06:15.771Z,78.60
2017-12-30T18:08:43.345Z,79.10
2017-12-30T18:11:10.996Z,79.60
2017-12-30T18:13:38.570Z,79.50
2017-12-30T18:16:06.225Z,79.40
2017-12-30T18:18:33.842Z,79.50
2017-12-30T18:21:01.493Z,78.60
2017-12-30T18:23:29.883Z,79.30
2017-12-30T18:25:57.533Z,79.20
2017-12-30T18:28:25.154Z,79.00
2017-12-30T18:30:52.801Z,79.10
2017-12-30T18:33:20.429Z,79.30
2017-12-30T18:35:48.086Z,79.40
2017-12-30T18:38:15.702Z,79.40
2017-12-30T18:40:43.432Z,79.60
2017-12-30T18:43:11.046Z,79.60
2017-12-30T18:45:39.414Z,79.70
2017-12-30T18:48:07.042Z,79.60
2017-12-30T18:50:34.684Z,79.60
2017-12-30T18:53:02.289Z,80.00
2017-12-30T18:55:29.881Z,79.60
2017-12-30T18:57:57.540Z,79.80
2017-12-30T19:00:25.163Z,79.70
2017-12-30T19:02:52.814Z,80.20
2017-12-30T19:05:20.460Z,80.10
2017-12-30T19:07:48.108Z,80.80
2017-12-30T19:10:15.741Z,80.20
2017-12-30T19:12:43.401Z,79.80
2017-12-30T19:15:11.799Z,80.40
2017-12-30T19:17:39.439Z,80.40
2017-12-30T19:20:07.837Z,80.10
2017-12-30T19:22:35.513Z,80.10
2017-12-30T19:25:03.191Z,80.20
2017-12-30T19:27:30.844Z,80.10
2017-12-30T19:29:58.462Z,80.50
2017-12-30T19:32:26.105Z,80.50
2017-12-30T19:34:53.735Z,80.30
2017-12-30T19:37:21.395Z,80.20
2017-12-30T19:39:49.026Z,80.90
2017-12-30T19:42:16.678Z,81.30
2017-12-30T19:44:44.296Z,81.20
2017-12-30T19:47:11.941Z,81.50
2017-12-30T19:49:39.561Z,81.30
2017-12-30T19:52:07.200Z,81.10
2017-12-30T19:54:35.586Z,81.00
2017-12-30T19:57:03.308Z,81.00
2017-12-30T19:59:30.948Z,80.90
2017-12-30T20:01:58.603Z,80.90
2017-12-30T20:04:26.238Z,81.70
2017-12-30T20:06:53.865Z,81.70
2017-12-30T20:09:21.509Z,81.30
2017-12-30T20:11:49.862Z,81.10
2017-12-30T20:14:18.912Z,81.20
2017-12-30T20:16:47.002Z,80.80
2017-12-30T20:19:15.644Z,80.60
2017-12-30T20:21:44.065Z,80.80
2017-12-30T20:24:11.762Z,80.60
2017-12-30T20:26:39.435Z,80.30
2017-12-30T20:29:07.073Z,80.10
2017-12-30T20:31:34.715Z,80.20
2017-12-30T20:34:02.369Z,80.50
2017-12-30T20:36:29.988Z,80.20
2017-12-30T20:38:58.121Z,79.80
2017-12-30T20:41:27.658Z,80.00
2017-12-30T20:43:55.377Z,80.40
2017-12-30T20:46:23.029Z,80.10
2017-12-30T20:48:50.681Z,80.20
2017-12-30T20:51:18.321Z,80.00
2017-12-30T20:53:45.976Z,80.20
2017-12-30T20:56:13.601Z,80.50
2017-12-30T20:58:41.249Z,80.30
2017-12-30T21:01:08.875Z,80.30
2017-12-30T21:03:36.518Z,80.60
2017-12-30T21:06:04.157Z,81.00
2017-12-30T21:08:31.910Z,80.60
2017-12-30T21:10:59.536Z,81.20
2017-12-30T21:13:27.177Z,80.80
2017-12-30T21:15:55.573Z,81.30
2017-12-30T21:18:23.206Z,81.20
2017-12-30T21:20:51.075Z,81.40
2017-12-30T21:23:19.481Z,81.30
2017-12-30T21:25:47.129Z,81.30
2017-12-30T21:28:15.517Z,81.50
2017-12-30T21:30:43.162Z,81.40
2017-12-30T21:33:10.798Z,81.30
2017-12-30T21:35:38.449Z,81.30
2017-12-30T21:38:06.124Z,81.20
2017-12-30T21:40:33.783Z,80.90
2017-12-30T21:43:01.407Z,81.10
2017-12-30T21:45:29.065Z,81.10
2017-12-30T21:47:56.782Z,81.10
2017-12-30T21:50:25.193Z,80.60
2017-12-30T21:52:52.808Z,80.50
2017-12-30T21:55:23.834Z,80.80
2017-12-30T21:57:58.003Z,80.80
2017-12-30T22:00:29.186Z,80.50
2017-12-30T22:02:56.965Z,80.40
2017-12-30T22:05:30.745Z,80.50
2017-12-30T22:07:58.374Z,80.10
2017-12-30T22:10:30.447Z,80.10
2017-12-30T22:13:01.546Z,80.40
2017-12-30T22:15:29.197Z,80.40
2017-12-30T22:17:57.405Z,79.90
2017-12-30T22:20:25.054Z,80.30
2017-12-30T22:22:53.444Z,79.90
2017-12-30T22:25:21.121Z,79.80
2017-12-30T22:27:48.754Z,79.60
2017-12-30T22:30:17.165Z,79.70
2017-12-30T22:32:44.793Z,79.70
2017-12-30T22:35:13.213Z,79.70
2017-12-30T22:37:40.862Z,79.70
2017-12-30T22:40:08.555Z,79.60
2017-12-30T22:42:36.182Z,79.20
2017-12-30T22:45:03.813Z,78.80
2017-12-30T22:47:31.490Z,78.80
2017-12-30T22:49:59.880Z,78.20
2017-12-30T22:52:27.556Z,78.20
2017-12-30T22:54:55.968Z,78.00
2017-12-30T22:57:24.645Z,77.90
2017-12-30T22:59:52.280Z,77.80
2017-12-30T23:02:19.921Z,77.90
2017-12-30T23:04:47.606Z,77.90
2017-12-30T23:07:15.251Z,77.30
2017-12-30T23:09:42.870Z,77.40
2017-12-30T23:12:11.294Z,77.30
2017-12-30T23:14:38.927Z,77.30
2017-12-30T23:17:06.581Z,76.60
2017-12-30T23:19:34.199Z,76.80
2017-12-30T23:22:01.861Z,76.30
2017-12-30T23:24:29.486Z,76.10
2017-12-30T23:26:57.182Z,76.80
2017-12-30T23:29:24.809Z,76.30
2017-12-30T23:31:53.247Z,76.90
2017-12-30T23:34:21.643Z,75.70
2017-12-30T23:36:50.053Z,75.30
2017-12-30T23:39:17.671Z,75.20
2017-12-30T23:41:46.085Z,75.30
2017-12-30T23:44:13.721Z,75.30
2017-12-30T23:46:42.189Z,75.40
2017-12-30T23:49:09.834Z,76.00
2017-12-30T23:51:37.486Z,75.30
2017-12-30T23:54:05.150Z,75.30
2017-12-30T23:56:32.798Z,76.20
2017-12-30T23:59:00.435Z,75.60
